Time;durP1;ratioP1;P1;durP2;ratioP2;P2;SDS_P1;SDS_P2;PMS_P1;PMS_P2;Temp;Humidity;BMP_temperature;BMP_pressure;BME280_temperature;BME280_humidity;BME280_pressure;Samples;Min_cycle;Max_cycle;Signal;HPM_P1;HPM_P2
2023/07/06 00:01:37;;;;;;;13.32;8.02;;;;;;;22.75;47.75;101583.91;5025960;28;20045;-31
2023/07/06 00:04:04;;;;;;;14.90;8.70;;;;;;;22.73;47.78;101594.06;5020431;28;20054;-30
2023/07/06 00:06:32;;;;;;;13.10;8.30;;;;;;;22.71;48.19;101579.88;5022469;28;20057;-31
2023/07/06 00:09:00;;;;;;;11.38;7.85;;;;;;;22.70;47.96;101589.00;5024600;28;20053;-31
2023/07/06 00:11:35;;;;;;;15.40;8.82;;;;;;;22.68;48.11;101593.72;5023053;28;20041;-30
2023/07/06 00:14:03;;;;;;;11.85;7.70;;;;;;;22.67;48.03;101598.28;5023703;28;20088;-31
2023/07/06 00:16:31;;;;;;;14.20;8.25;;;;;;;22.65;48.38;101592.19;5021546;28;20041;-31
2023/07/06 00:18:58;;;;;;;13.00;7.78;;;;;;;22.64;48.10;101593.22;5020469;28;20056;-31
2023/07/06 00:21:26;;;;;;;11.93;7.78;;;;;;;22.63;48.41;101598.75;5023343;28;20057;-31
2023/07/06 00:23:53;;;;;;;13.35;8.20;;;;;;;22.60;48.67;101594.56;5021693;28;20129;-30
2023/07/06 00:26:20;;;;;;;12.68;7.72;;;;;;;22.59;48.05;101598.28;5023802;28;20128;-30
2023/07/06 00:28:50;;;;;;;12.70;8.52;;;;;;;22.58;48.42;101596.56;5019741;28;20037;-30
2023/07/06 00:31:31;;;;;;;14.02;7.82;;;;;;;22.56;48.38;101592.34;5024049;28;20080;-31
2023/07/06 00:34:03;;;;;;;13.07;7.75;;;;;;;22.54;48.51;101597.91;5018335;28;20052;-32
2023/07/06 00:36:32;;;;;;;10.27;7.03;;;;;;;22.53;48.27;101598.09;5021041;28;20099;-30
2023/07/06 00:39:01;;;;;;;11.65;7.57;;;;;;;22.51;48.37;101592.81;5019327;28;20049;-30
2023/07/06 00:41:29;;;;;;;10.68;7.43;;;;;;;22.49;48.31;101594.84;5019688;28;20053;-30
2023/07/06 00:43:56;;;;;;;12.90;7.15;;;;;;;22.48;48.46;101590.47;5017869;28;20129;-31
2023/07/06 00:46:29;;;;;;;12.18;7.28;;;;;;;22.48;48.75;101589.63;5021573;28;20447;-31
2023/07/06 00:48:59;;;;;;;10.65;6.85;;;;;;;22.46;48.29;101595.19;5019738;28;20072;-30
2023/07/06 00:51:25;;;;;;;10.80;7.07;;;;;;;22.46;48.63;101594.34;5022674;28;20049;-31
2023/07/06 00:53:58;;;;;;;12.05;7.22;;;;;;;22.44;48.41;101596.38;5016126;28;20046;-30
2023/07/06 00:56:28;;;;;;;10.25;6.18;;;;;;;22.42;48.34;101591.97;5023506;28;20054;-30
2023/07/06 00:59:03;;;;;;;11.55;7.18;;;;;;;22.40;48.60;101593.16;5019802;28;20310;-31
2023/07/06 01:01:34;;;;;;;11.52;6.88;;;;;;;22.41;48.57;101592.97;5026882;28;20061;-30
2023/07/06 01:04:03;;;;;;;11.70;6.80;;;;;;;22.39;48.51;101592.31;5024798;28;20076;-31
2023/07/06 01:06:34;;;;;;;11.57;6.90;;;;;;;22.38;48.94;101595.16;5024291;28;20042;-31
2023/07/06 01:09:04;;;;;;;9.95;6.25;;;;;;;22.37;48.55;101597.03;5021627;28;20094;-31
2023/07/06 01:11:33;;;;;;;10.13;6.43;;;;;;;22.37;48.49;101598.88;5024047;28;20132;-30
2023/07/06 01:14:00;;;;;;;11.43;5.82;;;;;;;22.36;48.74;101594.50;5026537;28;20080;-31
2023/07/06 01:16:57;;;;;;;11.27;6.32;;;;;;;22.33;48.72;101587.56;5027238;28;20503;-30
2023/07/06 01:19:26;;;;;;;9.73;5.82;;;;;;;22.34;48.46;101593.78;5025438;28;20100;-31
2023/07/06 01:22:02;;;;;;;12.07;6.93;;;;;;;22.32;48.76;101593.13;5023343;28;20053;-30
2023/07/06 01:24:59;;;;;;;13.60;6.50;;;;;;;22.31;48.73;101599.53;5022147;28;20463;-31
2023/07/06 01:27:48;;;;;;;16.08;7.13;;;;;;;22.31;48.67;101599.53;5025249;28;20196;-30
2023/07/06 01:30:38;;;;;;;9.57;6.00;;;;;;;22.30;48.78;101585.16;5025189;28;20044;-31
2023/07/06 01:33:15;;;;;;;11.20;5.90;;;;;;;22.30;48.60;101592.44;5019781;28;20133;-31
2023/07/06 01:35:48;;;;;;;9.13;5.63;;;;;;;22.29;48.76;101588.91;5026523;28;20077;-31
2023/07/06 01:38:14;;;;;;;11.57;5.55;;;;;;;22.27;48.64;101588.22;5021387;28;20042;-31
2023/07/06 01:40:42;;;;;;;8.93;5.43;;;;;;;22.27;48.62;101584.66;5023088;28;20045;-32
2023/07/06 01:43:10;;;;;;;11.75;5.85;;;;;;;22.25;48.57;101578.59;5023237;28;20102;-30
2023/07/06 01:45:37;;;;;;;9.02;5.20;;;;;;;22.26;48.83;101585.66;5025878;28;20344;-30
2023/07/06 01:48:07;;;;;;;9.38;5.72;;;;;;;22.24;48.81;101591.25;5022617;28;20085;-30
2023/07/06 01:50:59;;;;;;;7.78;4.68;;;;;;;22.22;48.66;101589.72;5022367;28;20085;-32
2023/07/06 01:53:42;;;;;;;6.88;4.72;;;;;;;22.22;48.96;101587.00;5024225;28;20045;-30
2023/07/06 01:56:17;;;;;;;8.05;5.53;;;;;;;22.22;48.90;101587.00;5024376;28;20169;-31
2023/07/06 01:58:50;;;;;;;9.63;5.25;;;;;;;22.22;48.83;101582.44;5021073;28;20053;-30
2023/07/06 02:01:23;;;;;;;8.95;5.47;;;;;;;22.21;48.95;101590.72;5029142;28;20130;-31
2023/07/06 02:03:53;;;;;;;8.70;4.97;;;;;;;22.19;48.96;101585.47;5026251;28;20045;-31
2023/07/06 02:06:20;;;;;;;9.98;5.35;;;;;;;22.20;48.70;101586.34;5022983;28;20041;-31
2023/07/06 02:08:46;;;;;;;6.60;4.13;;;;;;;22.17;48.76;101585.63;5020355;28;20077;-31
2023/07/06 02:11:15;;;;;;;7.07;4.10;;;;;;;22.16;48.93;101583.97;5025741;28;20045;-31
2023/07/06 02:13:41;;;;;;;8.05;4.63;;;;;;;22.16;48.75;101580.41;5027102;28;20342;-30
2023/07/06 02:16:09;;;;;;;6.32;4.20;;;;;;;22.14;48.94;101585.13;5024388;28;20045;-31
2023/07/06 02:18:36;;;;;;;7.82;5.05;;;;;;;22.15;48.95;101581.41;5021057;28;20049;-30
2023/07/06 02:21:03;;;;;;;8.63;4.43;;;;;;;22.14;48.81;101588.66;5020461;28;20055;-30
2023/07/06 02:23:30;;;;;;;8.18;4.78;;;;;;;22.13;49.13;101589.69;5024470;28;20061;-31
2023/07/06 02:25:56;;;;;;;8.32;4.63;;;;;;;22.12;49.00;101581.72;5022676;28;20390;-30
2023/07/06 02:28:24;;;;;;;7.05;4.30;;;;;;;22.12;49.01;101579.00;5019840;28;20507;-29
2023/07/06 02:30:54;;;;;;;7.32;3.95;;;;;;;22.10;48.96;101576.47;5023102;28;20057;-29
2023/07/06 02:33:21;;;;;;;8.55;4.75;;;;;;;22.11;48.96;101578.19;5023637;28;20147;-30
2023/07/06 02:35:48;;;;;;;6.18;3.85;;;;;;;22.10;48.70;101583.72;5022271;28;20125;-29
2023/07/06 02:38:17;;;;;;;7.43;4.15;;;;;;;22.08;48.59;101586.59;5021868;28;20045;-30
2023/07/06 02:40:43;;;;;;;5.85;4.00;;;;;;;22.09;49.11;101588.28;5025301;28;20088;-30
2023/07/06 02:43:10;;;;;;;7.32;4.18;;;;;;;22.09;49.06;101590.13;5024805;28;20429;-30
2023/07/06 02:45:36;;;;;;;6.47;3.90;;;;;;;22.07;48.52;101593.00;5025506;28;20049;-30
2023/07/06 02:48:04;;;;;;;6.97;3.90;;;;;;;22.06;48.75;101596.69;5022382;28;20373;-29
2023/07/06 02:50:31;;;;;;;5.97;4.03;;;;;;;22.06;48.85;101595.84;5025371;28;20056;-29
2023/07/06 02:52:58;;;;;;;7.78;4.25;;;;;;;22.06;48.93;101601.25;5023463;28;20045;-29
2023/07/06 02:55:28;;;;;;;4.88;3.30;;;;;;;22.06;49.02;101607.50;5023521;28;20085;-29
2023/07/06 02:57:55;;;;;;;6.47;3.15;;;;;;;22.06;48.94;101599.38;5024999;28;20069;-30
2023/07/06 03:00:24;;;;;;;6.80;3.70;;;;;;;22.06;48.74;101603.94;5025106;28;20053;-30
2023/07/06 03:02:51;;;;;;;5.63;3.70;;;;;;;22.05;48.96;101600.41;5024516;28;20345;-30
2023/07/06 03:05:22;;;;;;;7.28;3.75;;;;;;;22.05;49.04;101604.97;5025037;28;20068;-31
2023/07/06 03:07:54;;;;;;;6.18;3.58;;;;;;;22.03;49.09;101594.34;5022683;28;20080;-30
2023/07/06 03:10:23;;;;;;;5.85;3.60;;;;;;;22.04;48.82;101604.13;5025047;28;20456;-30
2023/07/06 03:12:51;;;;;;;5.95;3.65;;;;;;;22.04;48.88;101603.28;5025967;28;20092;-30
2023/07/06 03:15:18;;;;;;;5.53;3.10;;;;;;;22.02;48.85;101600.72;5024409;28;20053;-31
2023/07/06 03:17:48;;;;;;;8.07;4.03;;;;;;;22.02;48.90;101605.28;5019630;28;20045;-30
2023/07/06 03:20:19;;;;;;;6.60;3.58;;;;;;;22.02;48.97;101603.41;5024111;28;20068;-30
2023/07/06 03:22:48;;;;;;;4.43;3.15;;;;;;;22.02;49.11;101600.72;5026946;28;20600;-32
2023/07/06 03:25:16;;;;;;;5.55;3.10;;;;;;;22.02;49.20;101602.56;5020565;28;20053;-29
2023/07/06 03:27:43;;;;;;;7.00;3.55;;;;;;;22.01;48.91;101601.75;5020679;28;20045;-30
2023/07/06 03:30:11;;;;;;;5.53;3.53;;;;;;;22.01;49.23;101606.28;5025721;28;20060;-29
2023/07/06 03:32:38;;;;;;;7.20;4.05;;;;;;;22.00;49.02;101600.06;5020305;28;20134;-30
2023/07/06 03:35:07;;;;;;;6.82;2.83;;;;;;;22.00;49.15;101610.84;5026314;28;20423;-30
2023/07/06 03:37:33;;;;;;;4.65;3.13;;;;;;;21.99;48.82;101611.88;5023197;28;20057;-30
2023/07/06 03:40:00;;;;;;;5.25;3.25;;;;;;;21.99;49.14;101621.78;5022456;28;20302;-30
2023/07/06 03:42:26;;;;;;;6.80;3.25;;;;;;;21.99;49.29;101609.16;5024106;28;20374;-30
2023/07/06 03:44:55;;;;;;;5.65;3.05;;;;;;;21.98;49.03;101612.00;5021422;28;20636;-30
2023/07/06 03:47:29;;;;;;;5.15;2.97;;;;;;;21.97;49.20;101613.03;5027830;28;20072;-30
2023/07/06 03:49:55;;;;;;;4.65;2.83;;;;;;;21.97;48.95;101616.56;5023747;28;20060;-30
2023/07/06 03:52:22;;;;;;;5.25;3.20;;;;;;;21.97;49.06;101613.03;5022511;28;20103;-29
2023/07/06 03:54:49;;;;;;;6.45;3.28;;;;;;;21.96;48.96;101614.88;5023244;28;20127;-30
2023/07/06 03:57:16;;;;;;;10.07;2.95;;;;;;;21.96;48.87;101616.75;5022099;28;20123;-30
2023/07/06 03:59:43;;;;;;;6.97;3.53;;;;;;;21.97;49.32;101618.44;5021344;28;20306;-30
2023/07/06 04:02:10;;;;;;;5.88;3.13;;;;;;;21.96;49.10;101624.84;5020862;28;20124;-30
2023/07/06 04:04:36;;;;;;;5.57;2.65;;;;;;;21.95;49.06;101626.69;5022487;28;20063;-30
2023/07/06 04:07:03;;;;;;;5.13;2.80;;;;;;;21.96;48.94;101627.53;5021589;28;20438;-30
2023/07/06 04:09:30;;;;;;;5.80;3.05;;;;;;;21.95;49.22;101626.69;5019243;28;20049;-29
2023/07/06 04:11:56;;;;;;;6.47;3.08;;;;;;;21.93;49.28;101621.44;5021129;28;20057;-30
2023/07/06 04:14:26;;;;;;;5.35;2.72;;;;;;;21.94;49.20;101630.38;5022803;28;20389;-30
2023/07/06 04:16:55;;;;;;;6.68;2.88;;;;;;;21.94;49.21;101630.38;5023515;28;20046;-30
2023/07/06 04:19:23;;;;;;;4.72;2.60;;;;;;;21.94;49.02;101630.38;5023091;28;20343;-30
2023/07/06 04:21:51;;;;;;;5.78;3.08;;;;;;;21.95;49.09;101626.69;5023209;28;20225;-30
2023/07/06 04:24:18;;;;;;;5.55;2.83;;;;;;;21.94;49.03;101630.38;5022004;28;20052;-30
2023/07/06 04:26:51;;;;;;;4.93;2.92;;;;;;;21.94;49.34;101635.78;5020375;28;20104;-30
2023/07/06 04:29:18;;;;;;;3.55;2.33;;;;;;;21.93;49.27;101634.94;5022405;28;20076;-30
2023/07/06 04:31:46;;;;;;;10.85;3.17;;;;;;;21.93;49.28;101636.78;5020648;28;20082;-30
2023/07/06 04:34:14;;;;;;;4.00;2.30;;;;;;;21.94;49.40;101636.63;5023374;28;20058;-30
2023/07/06 04:36:40;;;;;;;4.35;2.45;;;;;;;21.93;49.13;101639.50;5022319;28;20096;-31
2023/07/06 04:39:08;;;;;;;5.70;2.78;;;;;;;21.93;49.07;101640.34;5019847;28;20140;-30
2023/07/06 04:41:37;;;;;;;4.00;2.58;;;;;;;21.94;49.45;101646.56;5021965;28;20045;-30
2023/07/06 04:44:04;;;;;;;6.90;2.97;;;;;;;21.93;48.83;101642.19;5022480;28;20061;-31
2023/07/06 04:46:30;;;;;;;5.85;2.78;;;;;;;21.93;49.06;101640.34;5021120;28;20397;-30
2023/07/06 04:48:57;;;;;;;4.38;2.15;;;;;;;21.93;49.29;101652.97;5020643;28;20034;-31
2023/07/06 04:51:25;;;;;;;4.53;2.40;;;;;;;21.93;49.32;101648.44;5018113;28;20057;-31
2023/07/06 04:53:51;;;;;;;4.75;2.67;;;;;;;21.94;49.37;101655.50;5020877;28;20338;-30
2023/07/06 04:56:18;;;;;;;3.90;2.70;;;;;;;21.93;49.15;101655.69;5024397;28;20140;-31
2023/07/06 04:58:45;;;;;;;4.68;2.35;;;;;;;21.93;49.13;101655.69;5022121;28;20077;-31
2023/07/06 05:01:11;;;;;;;6.35;2.55;;;;;;;21.93;49.13;101656.53;5020581;28;20141;-31
2023/07/06 05:03:38;;;;;;;4.55;2.40;;;;;;;21.93;49.27;101659.22;5023047;28;20049;-30
2023/07/06 05:06:08;;;;;;;6.45;2.45;;;;;;;21.94;49.21;101665.47;5021372;28;20049;-30
2023/07/06 05:08:35;;;;;;;4.13;2.38;;;;;;;21.94;49.35;101662.75;5024556;28;20100;-31
2023/07/06 05:11:05;;;;;;;3.75;2.20;;;;;;;21.93;49.43;101661.94;5019273;28;20061;-30
2023/07/06 05:13:32;;;;;;;6.57;2.40;;;;;;;21.94;49.13;101665.47;5023798;28;20056;-31
2023/07/06 05:15:58;;;;;;;6.15;2.45;;;;;;;21.96;49.31;101662.63;5024725;28;20178;-30
2023/07/06 05:18:25;;;;;;;4.63;2.50;;;;;;;21.95;48.76;101669.88;5026175;28;20053;-30
2023/07/06 05:20:56;;;;;;;5.32;2.30;;;;;;;21.95;49.40;101664.47;5025625;28;20046;-30
2023/07/06 05:23:28;;;;;;;4.78;2.53;;;;;;;21.95;49.42;101664.47;5020105;28;20049;-30
2023/07/06 05:25:56;;;;;;;3.90;1.73;;;;;;;21.95;49.18;101667.19;5023869;28;21361;-31
2023/07/06 05:28:23;;;;;;;3.88;2.40;;;;;;;21.96;49.43;101662.63;5020858;28;20421;-31
2023/07/06 05:30:50;;;;;;;6.25;2.30;;;;;;;21.96;49.40;101663.47;5027377;28;20068;-30
2023/07/06 05:33:17;;;;;;;4.00;1.92;;;;;;;21.97;49.51;101667.00;5031092;28;20053;-30
2023/07/06 05:35:45;;;;;;;4.47;2.58;;;;;;;21.97;49.56;101667.00;5024709;28;20049;-30
2023/07/06 05:38:12;;;;;;;4.95;2.28;;;;;;;21.97;49.54;101662.47;5021352;28;21047;-30
2023/07/06 05:40:40;;;;;;;3.85;2.38;;;;;;;21.97;49.25;101670.56;5018342;28;20050;-31
2023/07/06 05:43:09;;;;;;;4.93;2.28;;;;;;;21.97;49.70;101664.31;5022585;28;20111;-30
2023/07/06 05:45:36;;;;;;;7.28;3.40;;;;;;;21.96;49.33;101666.16;5023579;28;20334;-30
2023/07/06 05:48:03;;;;;;;6.63;2.90;;;;;;;21.97;49.49;101675.94;5025682;28;20062;-31
2023/07/06 05:50:30;;;;;;;5.38;2.45;;;;;;;21.97;49.23;101675.09;5025026;28;20322;-30
2023/07/06 05:52:57;;;;;;;5.10;2.03;;;;;;;21.98;49.36;101672.25;5023756;28;20077;-30
2023/07/06 05:55:24;;;;;;;5.90;2.50;;;;;;;21.98;49.41;101680.34;5023753;28;20129;-30
2023/07/06 05:57:51;;;;;;;5.38;2.35;;;;;;;21.99;49.67;101686.59;5024437;28;20045;-30
2023/07/06 06:00:18;;;;;;;5.15;2.03;;;;;;;21.99;49.54;101692.84;5022050;28;20099;-30
2023/07/06 06:02:45;;;;;;;4.18;2.13;;;;;;;22.00;49.50;101694.53;5022889;28;20048;-31
2023/07/06 06:05:13;;;;;;;5.00;2.15;;;;;;;21.99;49.52;101691.97;5020121;28;20377;-30
2023/07/06 06:07:43;;;;;;;3.90;2.30;;;;;;;22.00;49.21;101699.94;5022527;28;20045;-30
2023/07/06 06:10:12;;;;;;;5.78;2.50;;;;;;;21.99;49.56;101695.56;5024922;28;20125;-30
2023/07/06 06:12:39;;;;;;;5.32;2.30;;;;;;;22.02;49.65;101705.16;5019452;28;20071;-30
2023/07/06 06:15:10;;;;;;;7.07;2.40;;;;;;;22.02;49.47;101702.47;5021662;28;20210;-30
2023/07/06 06:17:40;;;;;;;7.57;2.80;;;;;;;22.02;49.53;101708.72;5013867;28;20599;-30
2023/07/06 06:20:10;;;;;;;8.40;2.92;;;;;;;22.03;49.65;101717.66;5016426;28;20059;-30
2023/07/06 06:22:37;;;;;;;5.15;2.25;;;;;;;22.02;49.44;101722.22;5018575;28;20499;-30
2023/07/06 06:25:05;;;;;;;6.93;2.20;;;;;;;22.03;49.92;101723.06;5016483;28;20064;-30
2023/07/06 06:27:32;;;;;;;6.35;2.33;;;;;;;22.03;50.14;101721.22;5018692;28;20104;-30
2023/07/06 06:29:59;;;;;;;8.43;2.35;;;;;;;22.04;49.73;101728.31;5023825;28;20050;-30
2023/07/06 06:32:26;;;;;;;7.60;2.40;;;;;;;22.06;49.82;101731.69;5022173;28;20052;-30
2023/07/06 06:34:52;;;;;;;7.82;2.50;;;;;;;22.06;49.59;101734.38;5019785;28;20330;-30
2023/07/06 06:37:20;;;;;;;8.20;3.40;;;;;;;22.07;50.22;101736.09;5021182;28;20065;-30
2023/07/06 06:39:46;;;;;;;5.75;2.95;;;;;;;22.09;49.61;101735.94;5016076;28;20052;-29
2023/07/06 06:42:18;;;;;;;6.00;2.60;;;;;;;22.10;49.88;101743.84;5021555;28;20048;-30
2023/07/06 06:44:45;;;;;;;5.60;2.38;;;;;;;22.11;49.89;101742.88;5022000;28;20041;-31
2023/07/06 06:47:12;;;;;;;6.95;2.65;;;;;;;22.13;49.51;101748.97;5022416;28;20045;-30
2023/07/06 06:49:38;;;;;;;6.00;2.55;;;;;;;22.14;49.75;101744.44;5021965;28;20049;-31
2023/07/06 06:52:05;;;;;;;6.90;2.85;;;;;;;22.15;49.77;101749.69;5021116;28;20045;-30
2023/07/06 06:54:32;;;;;;;5.88;2.63;;;;;;;22.16;49.78;101748.66;5009894;28;20041;-30
2023/07/06 06:57:00;;;;;;;7.13;2.70;;;;;;;22.18;49.77;101749.34;5019940;28;20139;-31
2023/07/06 06:59:27;;;;;;;8.68;2.90;;;;;;;22.18;49.75;101746.63;5029179;28;20037;-30
2023/07/06 07:01:54;;;;;;;7.60;3.00;;;;;;;22.21;49.83;101741.94;5025037;28;20425;-31
2023/07/06 07:04:21;;;;;;;7.90;3.03;;;;;;;22.23;49.66;101750.72;5024817;28;20443;-30
2023/07/06 07:06:48;;;;;;;10.07;3.55;;;;;;;22.23;49.76;101751.59;5023194;28;20453;-30
2023/07/06 07:09:15;;;;;;;6.88;2.80;;;;;;;22.24;49.91;101749.72;5021325;28;20068;-30
2023/07/06 07:11:41;;;;;;;7.45;2.78;;;;;;;22.24;49.77;101745.19;5026016;28;20049;-32
2023/07/06 07:14:09;;;;;;;6.93;2.80;;;;;;;22.24;49.72;101750.56;5028098;28;20054;-29
2023/07/06 07:16:39;;;;;;;9.15;3.50;;;;;;;22.26;49.71;101745.00;5019679;28;20037;-30
2023/07/06 07:19:06;;;;;;;8.77;4.47;;;;;;;22.26;49.70;101753.09;5019499;28;20607;-30
2023/07/06 07:21:32;;;;;;;10.05;3.17;;;;;;;22.28;50.08;101751.09;5017318;28;20457;-30
2023/07/06 07:23:59;;;;;;;8.52;3.63;;;;;;;22.28;50.08;101751.94;5018310;28;20057;-30
2023/07/06 07:26:26;;;;;;;7.97;3.05;;;;;;;22.29;50.08;101752.78;5019867;28;20053;-31
2023/07/06 07:28:53;;;;;;;8.50;3.65;;;;;;;22.30;49.97;101758.03;5021355;28;20072;-30
2023/07/06 07:31:21;;;;;;;9.95;3.58;;;;;;;22.33;49.89;101756.88;5023940;28;20056;-30
2023/07/06 07:33:49;;;;;;;10.63;4.05;;;;;;;22.35;50.47;101762.94;5021035;28;20061;-30
2023/07/06 07:36:18;;;;;;;10.88;4.25;;;;;;;22.37;50.55;101764.50;5022067;28;20055;-30
2023/07/06 07:38:46;;;;;;;13.18;4.65;;;;;;;22.40;50.68;101766.03;5020783;28;20393;-30
2023/07/06 07:41:16;;;;;;;9.93;4.47;;;;;;;22.42;50.81;101769.41;5021629;28;20080;-30
2023/07/06 07:43:43;;;;;;;12.68;5.03;;;;;;;22.43;50.71;101763.00;5021780;28;20132;-30
2023/07/06 07:46:11;;;;;;;8.90;4.63;;;;;;;22.46;50.79;101767.25;5019707;28;20061;-30
2023/07/06 07:48:45;;;;;;;11.38;4.13;;;;;;;22.46;50.70;101773.47;5020833;28;20049;-30
2023/07/06 07:51:14;;;;;;;8.55;4.25;;;;;;;22.47;50.66;101771.63;5023877;28;20429;-30
2023/07/06 07:53:44;;;;;;;9.80;4.45;;;;;;;22.48;50.34;101767.94;5021093;28;20042;-31
2023/07/06 07:56:15;;;;;;;12.32;4.75;;;;;;;22.49;50.85;101778.56;5024702;28;20045;-30
2023/07/06 07:58:47;;;;;;;11.80;4.63;;;;;;;22.50;50.91;101776.72;5020534;28;20077;-30
2023/07/06 08:01:22;;;;;;;8.80;4.43;;;;;;;22.51;50.90;101778.41;5020340;28;20393;-31
2023/07/06 08:03:49;;;;;;;10.63;4.55;;;;;;;22.52;50.47;101780.13;5021738;28;20087;-30
2023/07/06 08:06:18;;;;;;;11.02;4.88;;;;;;;22.51;50.83;101773.84;5021107;28;20700;-30
2023/07/06 08:08:47;;;;;;;13.15;4.25;;;;;;;22.53;50.79;101781.81;5024554;28;20041;-30
2023/07/06 08:11:21;;;;;;;13.93;4.82;;;;;;;22.53;50.86;101781.81;5020005;28;20677;-30
2023/07/06 08:13:53;;;;;;;12.60;4.35;;;;;;;22.56;50.54;101784.19;5020922;28;20132;-30
2023/07/06 08:16:21;;;;;;;15.47;4.37;;;;;;;22.56;50.78;101787.75;5020600;28;20172;-30
2023/07/06 08:18:51;;;;;;;13.13;4.53;;;;;;;22.58;50.79;101796.50;5019453;28;20049;-30
2023/07/06 08:21:32;;;;;;;10.88;4.18;;;;;;;22.62;51.05;101797.88;5018126;28;20363;-30
2023/07/06 08:24:17;;;;;;;13.23;4.45;;;;;;;22.64;50.57;101795.03;5016793;28;20057;-30
2023/07/06 08:26:44;;;;;;;16.10;5.75;;;;;;;22.65;50.50;101797.56;5020269;28;20053;-30
2023/07/06 08:29:11;;;;;;;23.88;7.57;;;;;;;22.66;50.49;101788.44;5011532;28;20073;-30
2023/07/06 08:31:38;;;;;;;19.30;7.00;;;;;;;22.68;50.61;101796.41;5013580;28;20054;-30
2023/07/06 08:34:04;;;;;;;22.80;7.30;;;;;;;22.71;50.14;101797.94;5013352;28;20111;-30
2023/07/06 08:36:33;;;;;;;27.35;8.63;;;;;;;22.73;50.53;101801.34;5019849;28;20049;-30
2023/07/06 08:39:02;;;;;;;23.65;6.32;;;;;;;22.73;50.82;101801.34;5016629;28;20081;-30
2023/07/06 08:41:38;;;;;;;32.42;8.85;;;;;;;22.75;50.60;101804.69;5018332;28;20056;-30
2023/07/06 08:44:07;;;;;;;23.27;7.57;;;;;;;22.77;50.53;101808.09;5023933;28;20434;-30
2023/07/06 08:46:40;;;;;;;21.52;8.25;;;;;;;22.78;50.72;101815.19;5026904;28;20135;-30
2023/07/06 08:49:33;;;;;;;19.77;7.10;;;;;;;22.77;50.75;101810.81;5022827;28;20054;-30
2023/07/06 08:52:05;;;;;;;24.88;7.20;;;;;;;22.79;50.41;101811.47;5023484;28;20054;-30
2023/07/06 08:54:39;;;;;;;23.13;7.47;;;;;;;22.79;50.78;101815.03;5019837;28;20057;-30
2023/07/06 08:57:15;;;;;;;18.92;7.07;;;;;;;22.80;50.33;101814.03;5019947;28;20050;-30
2023/07/06 08:59:44;;;;;;;16.45;6.35;;;;;;;22.80;50.93;101814.03;5018422;28;20037;-30
2023/07/06 09:02:36;;;;;;;19.17;6.00;;;;;;;22.82;50.20;101819.28;5023294;28;20473;-30
2023/07/06 09:05:12;;;;;;;18.98;7.00;;;;;;;22.83;50.54;101818.25;5025719;28;20052;-30
2023/07/06 09:07:42;;;;;;;20.75;7.70;;;;;;;22.84;50.80;101823.53;5016879;28;20053;-30
2023/07/06 09:10:19;;;;;;;21.30;7.00;;;;;;;22.86;50.54;101828.75;5023625;28;21549;-30
2023/07/06 09:12:53;;;;;;;18.35;7.32;;;;;;;22.86;50.63;101820.66;5024217;28;20042;-30
2023/07/06 09:15:26;;;;;;;24.88;8.15;;;;;;;22.87;50.63;101816.91;5049111;28;20173;-30
2023/07/06 09:17:59;;;;;;;16.55;6.85;;;;;;;22.88;50.38;101821.34;5020475;28;20045;-30
2023/07/06 09:20:26;;;;;;;15.38;6.43;;;;;;;22.88;50.09;101824.06;5017377;28;20056;-30
2023/07/06 09:22:53;;;;;;;17.65;8.00;;;;;;;22.88;50.33;101824.91;5023310;28;20054;-30
2023/07/06 09:25:28;;;;;;;18.38;7.13;;;;;;;22.88;50.94;101821.34;5027191;28;20099;-30
2023/07/06 09:27:57;;;;;;;12.70;6.20;;;;;;;22.89;50.33;101831.13;5024541;28;20077;-30
2023/07/06 09:30:35;;;;;;;13.88;6.75;;;;;;;22.89;50.11;101829.28;5022887;28;20104;-30
2023/07/06 09:33:18;;;;;;;15.15;6.07;;;;;;;22.88;50.58;101833.00;5022904;28;20072;-30
2023/07/06 09:35:53;;;;;;;17.75;6.40;;;;;;;22.90;50.01;101838.25;5025727;28;20049;-30
2023/07/06 09:38:21;;;;;;;15.80;6.05;;;;;;;22.90;49.90;101835.53;5024735;28;20482;-30
2023/07/06 09:40:48;;;;;;;15.88;5.97;;;;;;;22.90;50.02;101827.41;5023279;28;20045;-30
2023/07/06 09:43:30;;;;;;;13.90;5.65;;;;;;;22.88;49.84;101830.31;5025092;28;20096;-30
2023/07/06 09:46:00;;;;;;;14.10;6.10;;;;;;;22.90;49.82;101832.81;5026545;28;20115;-30
2023/07/06 09:48:32;;;;;;;11.80;5.05;;;;;;;22.90;50.08;101836.41;5024158;28;20055;-31
2023/07/06 09:51:11;;;;;;;11.55;4.80;;;;;;;22.90;50.09;101841.81;5023466;28;20045;-30
2023/07/06 09:53:49;;;;;;;13.13;5.35;;;;;;;22.89;49.91;101842.81;5021576;28;20069;-30
2023/07/06 09:56:16;;;;;;;14.68;5.05;;;;;;;22.91;49.74;101845.34;5024932;28;20049;-30
2023/07/06 09:58:46;;;;;;;13.63;5.18;;;;;;;22.91;49.95;101845.34;5024353;28;20449;-30
2023/07/06 10:01:31;;;;;;;13.52;5.32;;;;;;;22.90;49.78;101857.16;5023773;28;20081;-29
2023/07/06 10:04:10;;;;;;;14.32;5.30;;;;;;;22.91;49.46;101861.59;5027752;28;20049;-30
2023/07/06 10:07:00;;;;;;;11.40;5.45;;;;;;;22.89;49.56;101856.31;5023774;28;20050;-30
2023/07/06 10:09:34;;;;;;;12.52;5.25;;;;;;;22.90;49.58;101863.44;5012071;28;21229;-29
2023/07/06 10:12:38;;;;;;;11.57;5.32;;;;;;;22.90;50.18;101865.28;5010607;28;20081;-30
2023/07/06 10:15:21;;;;;;;12.48;5.07;;;;;;;22.94;49.85;101861.28;4993387;28;20057;-31
2023/07/06 10:17:58;;;;;;;14.75;5.82;;;;;;;22.98;49.48;101867.19;5032974;28;20334;-32
2023/07/06 10:20:34;;;;;;;10.70;4.65;;;;;;;23.01;49.92;101877.72;5016041;28;20575;-29
2023/07/06 10:23:10;;;;;;;14.32;5.15;;;;;;;23.02;49.93;101877.53;5016984;28;20058;-29
2023/07/06 10:25:54;;;;;;;10.48;4.68;;;;;;;23.04;49.55;101872.81;5014910;28;20131;-30
2023/07/06 10:28:33;;;;;;;12.25;4.78;;;;;;;23.07;49.72;101872.47;5011982;28;20087;-30
2023/07/06 10:31:06;;;;;;;9.00;4.60;;;;;;;23.09;49.33;101880.44;5017416;28;20050;-30
2023/07/06 10:34:07;;;;;;;8.85;4.03;;;;;;;23.09;49.43;101881.28;5014399;28;20678;-31
2023/07/06 10:36:35;;;;;;;9.32;4.43;;;;;;;23.14;49.59;101878.94;4990695;28;20060;-30
2023/07/06 10:39:41;;;;;;;9.07;3.92;;;;;;;23.15;49.57;101868.97;5016291;28;20063;-30
2023/07/06 10:42:29;;;;;;;8.95;3.47;;;;;;;23.20;49.17;101872.06;5015447;28;20069;-31
2023/07/06 10:44:58;;;;;;;8.30;3.42;;;;;;;23.23;49.11;101879.81;5014558;28;20214;-30
2023/07/06 10:47:37;;;;;;;8.60;3.53;;;;;;;23.26;49.06;101873.25;5016201;28;20128;-31
2023/07/06 10:50:19;;;;;;;9.85;3.63;;;;;;;23.34;49.39;101863.28;5017119;28;20137;-31
2023/07/06 10:53:25;;;;;;;7.43;3.53;;;;;;;23.43;48.46;101868.72;5016634;28;20114;-32
2023/07/06 10:56:02;;;;;;;9.02;3.55;;;;;;;23.52;48.47;101876.72;4987649;28;20167;-31
2023/07/06 10:58:30;;;;;;;4.97;2.63;;;;;;;23.59;48.86;101876.88;5024245;28;20080;-32
2023/07/06 11:00:59;;;;;;;5.15;2.63;;;;;;;23.62;48.50;101869.28;5014246;28;20048;-32
2023/07/06 11:03:29;;;;;;;10.02;3.05;;;;;;;23.67;48.56;101873.38;5013821;28;20084;-30
2023/07/06 11:06:08;;;;;;;8.88;3.53;;;;;;;23.72;48.52;101877.31;5016459;28;20483;-31
2023/07/06 11:09:04;;;;;;;7.97;2.70;;;;;;;23.82;47.81;101874.44;5011568;28;20140;-31
2023/07/06 11:11:39;;;;;;;6.95;3.45;;;;;;;23.94;47.99;101875.81;5013205;28;20112;-29
2023/07/06 11:14:19;;;;;;;9.13;2.50;;;;;;;24.02;47.66;101873.09;5018554;28;20490;-30
2023/07/06 11:16:56;;;;;;;6.60;2.72;;;;;;;24.12;47.44;101873.81;4987665;28;20057;-29
2023/07/06 11:19:28;;;;;;;5.82;2.15;;;;;;;24.20;47.09;101874.78;5012455;28;20111;-30
2023/07/06 11:22:02;;;;;;;7.60;2.50;;;;;;;24.24;46.99;101884.28;5015679;28;20049;-30
2023/07/06 11:24:32;;;;;;;;;;;;;;;24.25;47.09;101889.53;5017549;28;20053;-30
2023/07/06 11:27:04;;;;;;;9.23;4.85;;;;;;;24.30;47.17;101889.88;5017497;28;20011;-31
2023/07/06 11:29:34;;;;;;;10.83;5.63;;;;;;;24.29;46.62;101881.91;5016851;28;20061;-30
2023/07/06 11:32:09;;;;;;;11.40;4.60;;;;;;;24.30;46.27;101889.03;5016462;28;20432;-30
2023/07/06 11:34:57;;;;;;;10.38;5.25;;;;;;;24.30;46.51;101881.75;4981469;28;20347;-30
2023/07/06 11:37:30;;;;;;;8.90;4.35;;;;;;;24.31;46.48;101879.88;5030407;28;20388;-30
2023/07/06 11:40:23;;;;;;;11.45;4.43;;;;;;;24.31;46.79;101890.72;5014087;28;20065;-31